createdAt,value
2018-11-25T00:00:12.859Z,4.20
2018-11-25T00:02:41.721Z,4.20
2018-11-25T00:05:10.133Z,4.20
2018-11-25T00:07:38.327Z,4.20
2018-11-25T00:10:06.892Z,4.20
2018-11-25T00:12:35.500Z,4.20
2018-11-25T00:15:03.838Z,4.20
2018-11-25T00:17:31.993Z,4.20
2018-11-25T00:20:00.192Z,4.20
2018-11-25T00:22:28.401Z,4.20
2018-11-25T00:24:57.463Z,4.20
2018-11-25T00:27:26.176Z,4.20
2018-11-25T00:29:54.525Z,4.20
2018-11-25T00:32:22.695Z,4.20
2018-11-25T00:34:50.892Z,4.20
2018-11-25T00:37:19.687Z,4.20
2018-11-25T00:39:47.875Z,4.20
2018-11-25T00:42:16.035Z,4.20
2018-11-25T00:44:44.248Z,4.20
2018-11-25T00:47:12.428Z,4.20
2018-11-25T00:49:40.648Z,4.30
2018-11-25T00:52:08.834Z,4.30
2018-11-25T00:54:37.025Z,4.30
2018-11-25T00:57:05.731Z,4.30
2018-11-25T00:59:34.534Z,4.40
2018-11-25T01:02:03.008Z,4.40
2018-11-25T01:04:31.232Z,4.30
2018-11-25T01:06:59.429Z,4.30
2018-11-25T01:09:27.612Z,4.40
2018-11-25T01:11:55.818Z,4.40
2018-11-25T01:14:24.009Z,4.40
2018-11-25T01:16:52.204Z,4.40
2018-11-25T01:19:20.403Z,4.40
2018-11-25T01:21:48.575Z,4.40
2018-11-25T01:24:16.835Z,4.30
2018-11-25T01:26:45.020Z,4.30
2018-11-25T01:29:13.187Z,4.30
2018-11-25T01:31:41.406Z,4.30
2018-11-25T01:37:03.916Z,4.20
2018-11-25T01:39:32.214Z,4.20
2018-11-25T01:42:00.392Z,4.20
2018-11-25T01:44:28.588Z,4.20
2018-11-25T01:46:56.762Z,4.20
2018-11-25T01:49:24.955Z,4.20
2018-11-25T01:51:53.522Z,4.20
2018-11-25T01:54:21.731Z,4.20
2018-11-25T01:56:49.923Z,4.20
2018-11-25T01:59:18.088Z,4.20
2018-11-25T02:01:46.280Z,4.20
2018-11-25T02:04:14.481Z,4.30
2018-11-25T02:06:42.685Z,4.30
2018-11-25T02:09:10.893Z,4.30
2018-11-25T02:11:39.057Z,4.30
2018-11-25T02:14:08.097Z,4.30
2018-11-25T02:16:36.295Z,4.30
2018-11-25T02:19:04.863Z,4.20
2018-11-25T02:21:33.056Z,4.20
2018-11-25T02:24:01.259Z,4.20
2018-11-25T02:26:29.476Z,4.20
2018-11-25T02:28:57.676Z,4.30
2018-11-25T02:31:25.827Z,4.30
2018-11-25T02:33:54.029Z,4.20
2018-11-25T02:36:22.225Z,4.20
2018-11-25T02:38:50.396Z,4.20
2018-11-25T02:41:18.792Z,4.20
2018-11-25T02:43:46.995Z,4.30
2018-11-25T02:46:15.170Z,4.30
2018-11-25T02:48:43.369Z,4.30
2018-11-25T02:51:11.553Z,4.30
2018-11-25T02:53:39.756Z,4.30
2018-11-25T02:56:11.696Z,4.40
2018-11-25T02:58:39.893Z,4.40
2018-11-25T03:01:08.464Z,4.40
2018-11-25T03:03:37.449Z,4.40
2018-11-25T03:06:05.800Z,4.30
2018-11-25T03:08:33.975Z,4.30
2018-11-25T03:11:02.148Z,4.30
2018-11-25T03:13:30.343Z,4.40
2018-11-25T03:15:58.589Z,4.40
2018-11-25T03:18:26.833Z,4.40
2018-11-25T03:20:55.009Z,4.40
2018-11-25T03:23:23.178Z,4.40
2018-11-25T03:25:52.091Z,4.40
2018-11-25T03:28:21.205Z,4.40
2018-11-25T03:30:49.381Z,4.30
2018-11-25T03:33:17.600Z,4.30
2018-11-25T03:35:45.779Z,4.30
2018-11-25T03:38:13.962Z,4.30
2018-11-25T03:40:42.152Z,4.30
2018-11-25T03:43:10.318Z,4.30
2018-11-25T03:45:38.518Z,4.30
2018-11-25T03:48:06.682Z,4.30
2018-11-25T03:50:34.859Z,4.40
2018-11-25T03:53:03.075Z,4.40
2018-11-25T03:55:31.281Z,4.40
2018-11-25T03:57:59.449Z,4.40
2018-11-25T04:00:28.461Z,4.40
2018-11-25T04:02:56.668Z,4.30
2018-11-25T04:05:24.855Z,4.30
2018-11-25T04:07:53.052Z,4.30
2018-11-25T04:10:21.246Z,4.30
2018-11-25T04:12:49.412Z,4.30
2018-11-25T04:15:18.331Z,4.30
2018-11-25T04:17:47.516Z,4.30
2018-11-25T04:20:19.496Z,4.30
2018-11-25T04:22:47.969Z,4.40
2018-11-25T04:25:16.151Z,4.40
2018-11-25T04:27:44.516Z,4.40
2018-11-25T04:30:15.752Z,4.40
2018-11-25T04:32:44.524Z,4.30
2018-11-25T04:35:13.230Z,4.30
2018-11-25T04:37:41.559Z,4.30
2018-11-25T04:40:15.801Z,4.30
2018-11-25T04:42:44.639Z,4.30
2018-11-25T04:45:14.815Z,4.30
2018-11-25T04:47:43.176Z,4.30
2018-11-25T04:50:13.496Z,4.30
2018-11-25T04:52:41.713Z,4.20
2018-11-25T04:55:10.231Z,4.20
2018-11-25T04:57:38.409Z,4.10
2018-11-25T05:00:09.797Z,4.10
2018-11-25T05:02:39.017Z,4.10
2018-11-25T05:05:10.641Z,4.10
2018-11-25T05:07:39.287Z,4.00
2018-11-25T05:10:11.596Z,4.10
2018-11-25T05:12:39.788Z,4.00
2018-11-25T05:15:11.406Z,4.00
2018-11-25T05:17:39.567Z,3.90
2018-11-25T05:20:09.256Z,3.90
2018-11-25T05:22:37.459Z,3.90
2018-11-25T05:25:07.560Z,3.80
2018-11-25T05:27:35.764Z,3.80
2018-11-25T05:30:04.525Z,3.80
2018-11-25T05:32:32.697Z,3.80
2018-11-25T05:35:00.888Z,3.70
2018-11-25T05:37:29.745Z,3.70
2018-11-25T05:39:57.899Z,3.70
2018-11-25T05:42:26.097Z,3.70
2018-11-25T05:44:54.275Z,3.70
2018-11-25T05:47:22.472Z,3.70
2018-11-25T05:49:50.632Z,3.70
2018-11-25T05:52:18.811Z,3.70
2018-11-25T05:54:47.030Z,3.70
2018-11-25T05:57:15.233Z,3.70
2018-11-25T05:59:43.395Z,3.60
2018-11-25T06:02:12.661Z,3.60
2018-11-25T06:04:40.861Z,3.60
2018-11-25T06:07:09.059Z,3.60
2018-11-25T06:09:37.228Z,3.60
2018-11-25T06:12:05.590Z,3.60
2018-11-25T06:14:33.800Z,3.60
2018-11-25T06:17:01.979Z,3.60
2018-11-25T06:19:30.135Z,3.60
2018-11-25T06:21:58.558Z,3.60
2018-11-25T06:24:26.721Z,3.60
2018-11-25T06:26:56.104Z,3.50
2018-11-25T06:29:24.265Z,3.50
2018-11-25T06:31:53.080Z,3.50
2018-11-25T06:34:21.285Z,3.50
2018-11-25T06:36:49.454Z,3.50
2018-11-25T06:39:17.648Z,3.50
2018-11-25T06:41:45.820Z,3.50
2018-11-25T06:44:14.037Z,3.50
2018-11-25T06:46:42.212Z,3.50
2018-11-25T06:49:10.385Z,3.50
2018-11-25T06:51:38.598Z,3.50
2018-11-25T06:54:06.775Z,3.50
2018-11-25T06:56:34.923Z,3.40
2018-11-25T06:59:03.120Z,3.40
2018-11-25T07:01:31.285Z,3.40
2018-11-25T07:03:59.472Z,3.40
2018-11-25T07:06:27.684Z,3.40
2018-11-25T07:08:55.835Z,3.40
2018-11-25T07:11:26.166Z,3.40
2018-11-25T07:13:54.485Z,3.40
2018-11-25T07:16:22.655Z,3.40
2018-11-25T07:18:50.835Z,3.40
2018-11-25T07:21:19.028Z,3.40
2018-11-25T07:23:47.257Z,3.40
2018-11-25T07:26:15.528Z,3.40
2018-11-25T07:28:43.695Z,3.40
2018-11-25T07:31:11.900Z,3.30
2018-11-25T07:33:40.421Z,3.40
2018-11-25T07:36:08.605Z,3.40
2018-11-25T07:38:36.812Z,3.40
2018-11-25T07:41:05.345Z,3.40
2018-11-25T07:43:33.536Z,3.40
2018-11-25T07:46:02.468Z,3.40
2018-11-25T07:48:29.943Z,3.50
2018-11-25T07:50:58.111Z,3.50
2018-11-25T07:53:26.288Z,3.40
2018-11-25T07:55:54.815Z,3.40
2018-11-25T07:58:22.992Z,3.40
2018-11-25T08:00:51.199Z,3.40
2018-11-25T08:03:19.412Z,3.40
2018-11-25T08:05:47.629Z,3.40
2018-11-25T08:08:15.818Z,3.40
2018-11-25T08:10:44.013Z,3.40
2018-11-25T08:13:12.178Z,3.40
2018-11-25T08:15:40.356Z,3.50
2018-11-25T08:18:08.756Z,3.50
2018-11-25T08:20:37.148Z,3.50
2018-11-25T08:23:05.342Z,3.50
2018-11-25T08:25:33.540Z,3.60
2018-11-25T08:28:01.744Z,3.60
2018-11-25T08:30:29.909Z,3.60
2018-11-25T08:32:58.510Z,3.60
2018-11-25T08:35:26.693Z,3.60
2018-11-25T08:37:54.850Z,3.60
2018-11-25T08:40:24.144Z,3.60
2018-11-25T08:42:52.552Z,3.70
2018-11-25T08:45:20.748Z,3.70
2018-11-25T08:47:48.956Z,3.70
2018-11-25T08:50:18.655Z,3.80
2018-11-25T08:52:47.940Z,3.80
2018-11-25T08:55:18.203Z,3.80
2018-11-25T08:57:46.413Z,3.80
2018-11-25T09:00:17.623Z,3.80
2018-11-25T09:02:45.939Z,3.80
2018-11-25T09:05:15.688Z,3.90
2018-11-25T09:07:44.724Z,3.90
2018-11-25T09:10:14.932Z,3.90
2018-11-25T09:12:43.568Z,3.90
2018-11-25T09:15:22.775Z,3.80
2018-11-25T09:17:51.512Z,3.80
2018-11-25T09:20:21.534Z,3.90
2018-11-25T09:22:50.372Z,4.00
2018-11-25T09:25:24.285Z,4.10
2018-11-25T09:27:52.595Z,4.10
2018-11-25T09:30:22.188Z,4.10
2018-11-25T09:32:50.335Z,4.10
2018-11-25T09:35:18.563Z,4.10
2018-11-25T09:37:46.813Z,4.20
2018-11-25T09:40:16.081Z,4.30
2018-11-25T09:42:44.464Z,4.30
2018-11-25T09:45:14.680Z,4.40
2018-11-25T09:47:43.164Z,4.40
2018-11-25T09:50:14.413Z,4.40
2018-11-25T09:52:42.949Z,4.40
2018-11-25T09:55:17.270Z,4.40
2018-11-25T09:57:47.428Z,4.50
2018-11-25T10:00:18.520Z,4.40
2018-11-25T10:02:46.838Z,4.40
2018-11-25T10:05:15.061Z,4.40
2018-11-25T10:07:43.277Z,4.50
2018-11-25T10:10:13.065Z,4.60
2018-11-25T10:12:41.952Z,4.60
2018-11-25T10:15:13.152Z,4.60
2018-11-25T10:17:42.073Z,4.60
2018-11-25T10:20:19.351Z,4.70
2018-11-25T10:22:47.550Z,4.80
2018-11-25T10:25:16.373Z,4.80
2018-11-25T10:27:44.607Z,4.80
2018-11-25T10:30:17.816Z,4.90
2018-11-25T10:32:48.081Z,4.90
2018-11-25T10:35:16.411Z,5.10
2018-11-25T10:37:44.676Z,5.10
2018-11-25T10:40:15.957Z,5.10
2018-11-25T10:42:44.212Z,5.10
2018-11-25T10:45:15.849Z,5.00
2018-11-25T10:47:44.104Z,5.00
2018-11-25T10:50:16.294Z,5.10
2018-11-25T10:52:44.684Z,5.20
2018-11-25T10:55:15.538Z,5.30
2018-11-25T10:57:45.448Z,5.40
2018-11-25T11:00:30.523Z,5.40
2018-11-25T11:03:04.105Z,5.40
2018-11-25T11:05:37.696Z,5.50
2018-11-25T11:08:06.978Z,5.50
2018-11-25T11:10:35.143Z,5.60
2018-11-25T11:13:03.474Z,5.50
2018-11-25T11:15:32.064Z,5.50
2018-11-25T11:18:00.744Z,5.60
2018-11-25T11:20:31.074Z,5.80
2018-11-25T11:22:59.264Z,5.90
2018-11-25T11:25:27.472Z,6.10
2018-11-25T11:27:56.302Z,6.30
2018-11-25T11:30:24.577Z,6.40
2018-11-25T11:32:52.858Z,6.40
2018-11-25T11:35:21.167Z,6.40
2018-11-25T11:37:49.483Z,6.30
2018-11-25T11:40:17.700Z,6.30
2018-11-25T11:42:45.871Z,6.30
2018-11-25T11:45:14.900Z,6.30
2018-11-25T11:47:44.157Z,6.30
2018-11-25T11:50:15.525Z,6.10
2018-11-25T11:52:43.899Z,6.00
2018-11-25T11:55:13.427Z,6.00
2018-11-25T11:57:41.984Z,6.00
2018-11-25T12:00:17.568Z,6.10
2018-11-25T12:02:46.642Z,6.20
2018-11-25T12:05:15.150Z,6.30
2018-11-25T12:07:43.372Z,6.30
2018-11-25T12:10:13.523Z,6.30
2018-11-25T12:12:41.726Z,6.30
2018-11-25T12:15:30.818Z,6.30
2018-11-25T12:17:57.805Z,6.30
2018-11-25T12:20:27.168Z,6.30
2018-11-25T12:22:56.169Z,6.30
2018-11-25T12:25:24.371Z,6.40
2018-11-25T12:27:52.853Z,6.50
2018-11-25T12:30:21.066Z,6.60
2018-11-25T12:32:50.504Z,6.50
2018-11-25T12:35:18.852Z,6.40
2018-11-25T12:37:47.059Z,6.30
2018-11-25T12:40:16.612Z,6.10
2018-11-25T12:42:49.250Z,6.00
2018-11-25T12:45:18.280Z,5.90
2018-11-25T12:47:46.447Z,5.90
2018-11-25T12:50:16.600Z,5.80
2018-11-25T12:52:44.886Z,5.70
2018-11-25T12:55:18.108Z,5.60
2018-11-25T12:57:47.248Z,5.70
2018-11-25T13:00:31.902Z,6.00
2018-11-25T13:03:00.104Z,6.20
2018-11-25T13:05:28.547Z,6.50
2018-11-25T13:07:56.728Z,6.70
2018-11-25T13:10:24.901Z,6.70
2018-11-25T13:12:53.509Z,6.60
2018-11-25T13:15:21.876Z,6.40
2018-11-25T13:17:50.059Z,6.20
2018-11-25T13:20:18.224Z,6.10
2018-11-25T13:22:46.783Z,5.90
2018-11-25T13:25:20.961Z,5.80
2018-11-25T13:27:49.457Z,5.90
2018-11-25T13:30:25.928Z,6.10
2018-11-25T13:32:57.099Z,6.40
2018-11-25T13:35:27.712Z,6.70
2018-11-25T13:37:54.664Z,6.90
2018-11-25T13:40:22.844Z,7.00
2018-11-25T13:42:51.040Z,7.10
2018-11-25T13:45:19.947Z,7.20
2018-11-25T13:47:48.213Z,7.30
2018-11-25T13:50:16.421Z,7.30
2018-11-25T13:52:47.982Z,7.10
2018-11-25T13:55:23.965Z,6.80
2018-11-25T13:57:56.476Z,6.50
2018-11-25T14:00:29.723Z,6.30
2018-11-25T14:03:01.761Z,6.10
2018-11-25T14:05:29.961Z,5.90
2018-11-25T14:07:58.153Z,5.60
2018-11-25T14:13:19.421Z,5.30
2018-11-25T14:15:47.576Z,5.20
2018-11-25T14:18:15.759Z,5.10
2018-11-25T14:20:43.949Z,5.10
2018-11-25T14:23:12.146Z,5.10
2018-11-25T14:25:40.688Z,5.10
2018-11-25T14:28:10.857Z,5.20
2018-11-25T14:30:39.016Z,5.10
2018-11-25T14:33:07.220Z,5.10
2018-11-25T14:35:35.414Z,5.00
2018-11-25T14:38:03.608Z,5.00
2018-11-25T14:40:38.692Z,5.00
2018-11-25T14:43:07.562Z,5.00
2018-11-25T14:45:35.725Z,5.00
2018-11-25T14:48:03.911Z,5.00
2018-11-25T14:50:32.050Z,4.90
2018-11-25T14:53:00.275Z,4.90
2018-11-25T14:55:28.451Z,4.80
2018-11-25T14:57:56.720Z,4.80
2018-11-25T15:00:25.431Z,4.70
2018-11-25T15:02:56.720Z,4.60
2018-11-25T15:05:29.490Z,4.60
2018-11-25T15:07:57.681Z,4.60
2018-11-25T15:10:25.839Z,4.60
2018-11-25T15:12:54.084Z,4.50
2018-11-25T15:15:22.257Z,4.50
2018-11-25T15:17:50.449Z,4.40
2018-11-25T15:20:18.643Z,4.40
2018-11-25T15:22:55.612Z,4.40
2018-11-25T15:25:25.913Z,4.40
2018-11-25T15:27:54.106Z,4.30
2018-11-25T15:30:22.636Z,4.30
2018-11-25T15:32:50.852Z,4.20
2018-11-25T15:35:20.320Z,4.20
2018-11-25T15:37:49.905Z,4.20
2018-11-25T15:40:20.155Z,4.20
2018-11-25T15:42:48.346Z,4.20
2018-11-25T15:45:16.553Z,4.20
2018-11-25T15:47:48.169Z,4.10
2018-11-25T15:50:25.640Z,4.10
2018-11-25T15:52:54.033Z,4.10
2018-11-25T15:55:22.261Z,4.00
2018-11-25T15:57:51.694Z,4.00
2018-11-25T16:00:23.695Z,4.00
2018-11-25T16:02:51.946Z,4.00
2018-11-25T16:05:27.724Z,4.00
2018-11-25T16:07:55.907Z,4.10
2018-11-25T16:10:24.121Z,4.10
2018-11-25T16:12:53.007Z,4.10
2018-11-25T16:15:23.886Z,4.00
2018-11-25T16:17:52.098Z,4.00
2018-11-25T16:20:22.722Z,4.00
2018-11-25T16:23:00.292Z,4.00
2018-11-25T16:25:37.764Z,4.00
2018-11-25T16:28:15.944Z,4.00
2018-11-25T16:30:44.160Z,4.00
2018-11-25T16:33:12.320Z,3.90
2018-11-25T16:35:40.483Z,3.90
2018-11-25T16:38:08.669Z,3.80
2018-11-25T16:40:36.860Z,3.70
2018-11-25T16:43:05.674Z,3.70
2018-11-25T16:45:34.063Z,3.60
2018-11-25T16:48:03.083Z,3.70
2018-11-25T16:50:31.315Z,3.70
2018-11-25T16:52:59.588Z,3.70
2018-11-25T16:55:27.787Z,3.80
2018-11-25T16:57:55.956Z,3.80
2018-11-25T17:00:24.219Z,3.80
2018-11-25T17:02:58.773Z,3.70
2018-11-25T17:05:29.467Z,3.70
2018-11-25T17:08:02.266Z,3.70
2018-11-25T17:10:30.889Z,3.60
2018-11-25T17:12:59.094Z,3.60
2018-11-25T17:15:28.223Z,3.50
2018-11-25T17:17:56.485Z,3.40
2018-11-25T17:20:24.755Z,3.40
2018-11-25T17:22:52.976Z,3.40
2018-11-25T17:25:21.503Z,3.40
2018-11-25T17:27:50.334Z,3.30
2018-11-25T17:30:19.864Z,3.30
2018-11-25T17:32:48.398Z,3.30
2018-11-25T17:35:19.940Z,3.20
2018-11-25T17:37:48.104Z,3.20
2018-11-25T17:40:16.315Z,3.20
2018-11-25T17:42:45.081Z,3.20
2018-11-25T17:45:15.256Z,3.20
2018-11-25T17:47:43.879Z,3.10
2018-11-25T17:50:16.401Z,3.10
2018-11-25T17:52:44.844Z,3.20
2018-11-25T17:55:13.927Z,3.10
2018-11-25T17:57:42.437Z,3.20
2018-11-25T18:00:22.520Z,3.20
2018-11-25T18:02:50.695Z,3.20
2018-11-25T18:05:18.913Z,3.20
2018-11-25T18:07:47.075Z,3.10
2018-11-25T18:10:15.223Z,3.10
2018-11-25T18:12:43.390Z,3.10
2018-11-25T18:15:16.360Z,3.10
2018-11-25T18:17:47.968Z,3.10
2018-11-25T18:20:16.133Z,3.10
2018-11-25T18:22:46.548Z,3.10
2018-11-25T18:25:14.724Z,3.20
2018-11-25T18:27:42.913Z,3.20
2018-11-25T18:30:12.809Z,3.20
2018-11-25T18:32:41.451Z,3.10
2018-11-25T18:35:10.236Z,3.20
2018-11-25T18:37:38.450Z,3.10
2018-11-25T18:40:14.956Z,3.10
2018-11-25T18:42:44.112Z,3.10
2018-11-25T18:45:16.600Z,3.00
2018-11-25T18:47:49.968Z,2.90
2018-11-25T18:50:18.877Z,2.90
2018-11-25T18:52:49.060Z,2.90
2018-11-25T18:55:16.272Z,2.90
2018-11-25T18:57:44.439Z,2.80
2018-11-25T19:00:20.797Z,2.80
2018-11-25T19:02:49.009Z,2.90
2018-11-25T19:05:17.241Z,2.90
2018-11-25T19:07:45.413Z,2.90
2018-11-25T19:10:17.014Z,2.80
2018-11-25T19:12:45.197Z,2.90
2018-11-25T19:15:17.626Z,2.80
2018-11-25T19:17:45.790Z,2.80
2018-11-25T19:20:16.687Z,2.90
2018-11-25T19:22:44.852Z,2.90
2018-11-25T19:25:14.711Z,2.80
2018-11-25T19:27:43.439Z,2.90
2018-11-25T19:30:16.195Z,2.80
2018-11-25T19:32:50.273Z,2.80
2018-11-25T19:35:21.089Z,2.80
2018-11-25T19:37:50.590Z,2.70
2018-11-25T19:40:26.552Z,2.70
2018-11-25T19:42:55.028Z,2.70
2018-11-25T19:45:24.509Z,2.70
2018-11-25T19:47:53.016Z,2.60
2018-11-25T19:50:28.416Z,2.60
2018-11-25T19:52:56.608Z,2.70
2018-11-25T19:55:24.788Z,2.60
2018-11-25T19:57:53.309Z,2.70
2018-11-25T20:00:23.588Z,2.60
2018-11-25T20:02:51.813Z,2.60
2018-11-25T20:05:20.025Z,2.50
2018-11-25T20:07:48.425Z,2.50
2018-11-25T20:10:19.788Z,2.40
2018-11-25T20:12:49.547Z,2.40
2018-11-25T20:15:18.691Z,2.50
2018-11-25T20:17:54.137Z,2.50
2018-11-25T20:20:19.531Z,2.50
2018-11-25T20:22:48.037Z,2.60
2018-11-25T20:25:16.893Z,2.60
2018-11-25T20:27:46.202Z,2.60
2018-11-25T20:30:17.821Z,2.70
2018-11-25T20:32:51.349Z,2.60
2018-11-25T20:35:19.532Z,2.60
2018-11-25T20:37:53.399Z,2.60
2018-11-25T20:40:21.920Z,2.60
2018-11-25T20:42:50.137Z,2.60
2018-11-25T20:45:26.098Z,2.50
2018-11-25T20:47:56.656Z,2.50
2018-11-25T20:50:24.829Z,2.50
2018-11-25T20:52:58.256Z,2.50
2018-11-25T20:55:26.435Z,2.50
2018-11-25T20:57:55.276Z,2.40
2018-11-25T21:00:24.762Z,2.40
2018-11-25T21:02:52.935Z,2.40
2018-11-25T21:05:21.144Z,2.30
2018-11-25T21:07:49.308Z,2.30
2018-11-25T21:10:18.695Z,2.30
2018-11-25T21:12:49.173Z,2.30
2018-11-25T21:15:17.364Z,2.30
2018-11-25T21:17:45.561Z,2.30
2018-11-25T21:20:19.000Z,2.30
2018-11-25T21:22:47.172Z,2.30
2018-11-25T21:25:18.069Z,2.30
2018-11-25T21:27:46.799Z,2.30
2018-11-25T21:30:19.319Z,2.30
2018-11-25T21:32:48.729Z,2.30
2018-11-25T21:35:16.933Z,2.30
2018-11-25T21:37:45.124Z,2.30
2018-11-25T21:40:14.951Z,2.30
2018-11-25T21:42:43.132Z,2.30
2018-11-25T21:45:12.696Z,2.30
2018-11-25T21:47:41.068Z,2.20
2018-11-25T21:50:25.286Z,2.20
2018-11-25T21:52:53.446Z,2.30
2018-11-25T21:55:21.877Z,2.30
2018-11-25T21:57:50.472Z,2.30
2018-11-25T22:00:20.489Z,2.30
2018-11-25T22:02:48.920Z,2.30
2018-11-25T22:05:17.128Z,2.30
2018-11-25T22:07:45.327Z,2.30
2018-11-25T22:10:15.101Z,2.30
2018-11-25T22:12:43.957Z,2.40
2018-11-25T22:15:17.708Z,2.40
2018-11-25T22:17:45.886Z,2.40
2018-11-25T22:20:14.809Z,2.50
2018-11-25T22:22:43.055Z,2.50
2018-11-25T22:25:15.464Z,2.40
2018-11-25T22:27:43.817Z,2.40
2018-11-25T22:30:14.281Z,2.40
2018-11-25T22:32:42.500Z,2.40
2018-11-25T22:35:27.304Z,2.40
2018-11-25T22:37:55.544Z,2.40
2018-11-25T22:40:24.003Z,2.40
2018-11-25T22:42:53.195Z,2.40
2018-11-25T22:45:22.613Z,2.40
2018-11-25T22:47:50.790Z,2.40
2018-11-25T22:50:19.844Z,2.40
2018-11-25T22:52:48.271Z,2.40
2018-11-25T22:55:17.597Z,2.40
2018-11-25T22:57:45.751Z,2.40
2018-11-25T23:00:25.925Z,2.40
2018-11-25T23:02:54.140Z,2.40
2018-11-25T23:05:34.528Z,2.40
2018-11-25T23:08:02.758Z,2.40
2018-11-25T23:10:30.960Z,2.40
2018-11-25T23:12:59.163Z,2.50
2018-11-25T23:15:27.357Z,2.50
2018-11-25T23:17:55.534Z,2.50
2018-11-25T23:20:23.697Z,2.50
2018-11-25T23:22:51.875Z,2.50
2018-11-25T23:25:20.038Z,2.50
2018-11-25T23:27:48.202Z,2.50
2018-11-25T23:30:16.580Z,2.50
2018-11-25T23:32:45.412Z,2.50
2018-11-25T23:35:16.559Z,2.50
2018-11-25T23:37:44.792Z,2.60
2018-11-25T23:40:13.000Z,2.60
2018-11-25T23:42:41.524Z,2.60
2018-11-25T23:45:12.703Z,2.60
2018-11-25T23:47:40.986Z,2.60
2018-11-25T23:50:10.341Z,2.60
2018-11-25T23:52:38.828Z,2.70
2018-11-25T23:55:08.509Z,2.70
2018-11-25T23:57:36.699Z,2.60
